createdAt,value
2023-01-29T00:00:09.009Z,94.48
2023-01-29T00:01:08.286Z,94.28
2023-01-29T00:02:08.616Z,94.18
2023-01-29T00:03:09.248Z,94.26
2023-01-29T00:04:09.076Z,94.5
2023-01-29T00:05:26.435Z,94.57
2023-01-29T00:06:11.097Z,94.55
2023-01-29T00:07:10.588Z,94.44
2023-01-29T00:08:11.109Z,94.38
2023-01-29T00:09:12.038Z,94.51
2023-01-29T00:10:12.256Z,94.71
2023-01-29T00:11:12.359Z,94.81
2023-01-29T00:12:12.776Z,94.7
2023-01-29T00:13:13.057Z,94.85
2023-01-29T00:14:13.507Z,94.95
2023-01-29T00:15:13.822Z,95.05
2023-01-29T00:16:14.236Z,95.04
2023-01-29T00:17:14.845Z,95.11
2023-01-29T00:18:14.976Z,94.97
2023-01-29T00:19:15.699Z,94.92
2023-01-29T00:20:16.483Z,94.92
2023-01-29T00:21:18.571Z,95.01
2023-01-29T00:22:16.720Z,95.09
2023-01-29T00:23:17.242Z,95.14
2023-01-29T00:24:17.286Z,95.13
2023-01-29T00:25:18.277Z,94.96
2023-01-29T00:26:18.801Z,94.79
2023-01-29T00:27:18.710Z,94.68
2023-01-29T00:28:19.234Z,94.41
2023-01-29T00:29:19.662Z,94.31
2023-01-29T00:30:20.439Z,94.29
2023-01-29T00:31:23.783Z,94.38
2023-01-29T00:32:21.985Z,94.36
2023-01-29T00:33:22.437Z,94.68
2023-01-29T00:34:22.862Z,94.76
2023-01-29T00:35:23.165Z,94.64
2023-01-29T00:36:23.889Z,94.48
2023-01-29T00:37:23.987Z,94.33
2023-01-29T00:38:24.409Z,94.29
2023-01-29T00:39:31.296Z,94.38
2023-01-29T00:40:29.546Z,94.5
2023-01-29T00:41:31.495Z,94.33
2023-01-29T00:42:30.000Z,94.32
2023-01-29T00:43:31.043Z,94.33
2023-01-29T00:44:30.999Z,94.43
2023-01-29T00:45:31.220Z,94.35
2023-01-29T00:46:31.669Z,94.25
2023-01-29T00:47:31.876Z,94.13
2023-01-29T00:48:32.568Z,93.84
2023-01-29T00:49:32.984Z,93.86
2023-01-29T00:50:33.400Z,94.04
2023-01-29T00:51:34.229Z,94.09
2023-01-29T00:52:34.393Z,94
2023-01-29T00:53:34.744Z,94.14
2023-01-29T00:54:34.873Z,94.2
2023-01-29T00:55:35.388Z,94
2023-01-29T00:56:37.429Z,93.99
2023-01-29T00:57:37.070Z,94.1
2023-01-29T00:58:36.331Z,94.06
2023-01-29T00:59:37.143Z,94.02
2023-01-29T01:00:37.090Z,94.18
2023-01-29T01:01:37.674Z,94.34
2023-01-29T01:02:38.397Z,94.13
2023-01-29T01:03:38.811Z,94.33
2023-01-29T01:04:38.820Z,94.33
2023-01-29T01:05:39.457Z,94.26
2023-01-29T01:06:41.213Z,94.37
2023-01-29T01:07:40.787Z,94.45
2023-01-29T01:08:40.489Z,94.53
2023-01-29T01:09:41.106Z,94.44
2023-01-29T01:10:41.629Z,94.44
2023-01-29T01:11:41.739Z,94.42
2023-01-29T01:12:42.277Z,94.54
2023-01-29T01:13:42.759Z,94.56
2023-01-29T01:14:43.117Z,94.73
2023-01-29T01:15:43.609Z,94.91
2023-01-29T01:16:45.243Z,94.81
2023-01-29T01:17:44.028Z,94.74
2023-01-29T01:18:44.743Z,94.81
2023-01-29T01:19:45.282Z,94.85
2023-01-29T01:20:45.690Z,94.83
2023-01-29T01:21:46.091Z,94.72
2023-01-29T01:22:46.308Z,94.77
2023-01-29T01:23:46.625Z,94.87
2023-01-29T01:24:47.150Z,94.87
2023-01-29T01:25:47.761Z,94.81
2023-01-29T01:26:47.966Z,94.75
2023-01-29T01:27:48.598Z,94.85
2023-01-29T01:28:48.816Z,94.84
2023-01-29T01:29:49.216Z,94.7
2023-01-29T01:30:49.680Z,94.6
2023-01-29T01:31:50.002Z,94.74
2023-01-29T01:32:50.676Z,94.88
2023-01-29T01:33:50.778Z,94.88
2023-01-29T01:34:53.053Z,94.97
2023-01-29T01:35:51.407Z,95.03
2023-01-29T01:36:52.248Z,95.01
2023-01-29T01:37:52.559Z,95.01
2023-01-29T01:38:52.955Z,94.89
2023-01-29T01:39:53.487Z,94.93
2023-01-29T01:40:53.612Z,94.94
2023-01-29T01:41:54.120Z,94.8
2023-01-29T01:42:57.189Z,94.86
2023-01-29T01:44:03.339Z,95.02
2023-01-29T01:45:02.100Z,95.07
2023-01-29T01:46:00.020Z,94.98
2023-01-29T01:47:02.439Z,95.12
2023-01-29T01:51:06.771Z,95.11
2023-01-29T01:52:05.362Z,95.09
2023-01-29T01:53:10.395Z,95.03
2023-01-29T01:54:13.368Z,95.04
2023-01-29T01:55:14.477Z,95.04
2023-01-29T01:56:19.102Z,94.84
2023-01-29T01:57:22.177Z,94.66
2023-01-29T01:58:28.750Z,94.74
2023-01-29T01:59:24.437Z,94.83
2023-01-29T02:00:25.979Z,94.72
2023-01-29T02:01:25.987Z,94.76
2023-01-29T02:02:25.540Z,94.86
2023-01-29T02:03:27.729Z,94.81
2023-01-29T02:04:27.435Z,94.66
2023-01-29T02:05:27.236Z,94.75
2023-01-29T02:06:26.489Z,94.75
2023-01-29T02:07:26.799Z,94.7
2023-01-29T02:09:33.304Z,94.77
2023-01-29T02:11:31.986Z,94.7
2023-01-29T02:12:33.639Z,94.74
2023-01-29T02:13:32.716Z,94.87
2023-01-29T02:14:34.157Z,94.92
2023-01-29T02:15:33.852Z,94.84
2023-01-29T02:16:36.943Z,94.75
2023-01-29T02:17:34.839Z,94.7
2023-01-29T02:18:35.317Z,94.46
2023-01-29T02:20:41.876Z,94.52
2023-01-29T02:37:12.396Z,94.58
2023-01-29T02:50:48.838Z,94.77
2023-01-29T02:52:54.984Z,94.75
2023-01-29T02:57:02.704Z,95.12
2023-01-29T02:59:19.494Z,94.89
2023-01-29T03:00:21.257Z,94.85
2023-01-29T03:05:26.200Z,94.61
2023-01-29T03:08:33.073Z,95.03
2023-01-29T03:10:37.490Z,94.74
2023-01-29T03:12:39.755Z,94.97
2023-01-29T03:14:43.149Z,94.89
2023-01-29T03:15:49.816Z,94.96
2023-01-29T03:16:52.698Z,95.24
2023-01-29T03:19:50.063Z,95.14
2023-01-29T03:20:57.855Z,95.08
2023-01-29T03:22:01.273Z,95.09
2023-01-29T03:23:01.848Z,95.05
2023-01-29T03:23:57.357Z,95.22
2023-01-29T03:24:58.709Z,95.27
2023-01-29T03:26:00.015Z,95.21
2023-01-29T03:27:02.390Z,95.24
2023-01-29T03:28:04.542Z,95.51
2023-01-29T03:29:05.771Z,95.58
2023-01-29T03:30:05.744Z,95.59
2023-01-29T03:31:08.356Z,95.45
2023-01-29T03:32:08.079Z,95.38
2023-01-29T03:33:10.312Z,95.25
2023-01-29T03:34:14.405Z,95.31
2023-01-29T03:35:16.565Z,95.31
2023-01-29T03:36:19.347Z,95.5
2023-01-29T03:37:27.857Z,95.66
2023-01-29T03:38:21.496Z,95.7
2023-01-29T03:39:21.302Z,95.6
2023-01-29T03:40:21.821Z,95.63
2023-01-29T03:41:33.411Z,95.63
2023-01-29T03:42:39.753Z,95.67
2023-01-29T03:47:49.104Z,95.61
2023-01-29T03:52:01.995Z,95.38
2023-01-29T04:02:29.032Z,95.79
2023-01-29T04:03:35.411Z,95.9
2023-01-29T04:04:31.304Z,95.87
2023-01-29T04:05:28.945Z,95.82
2023-01-29T04:06:30.704Z,95.69
2023-01-29T04:07:31.214Z,95.75
2023-01-29T04:08:31.632Z,95.66
2023-01-29T04:10:37.590Z,95.83
2023-01-29T04:11:39.121Z,96.14
2023-01-29T04:13:41.088Z,96.5
2023-01-29T04:14:41.297Z,96.67
2023-01-29T04:16:49.164Z,96.93
2023-01-29T04:17:52.185Z,96.91
2023-01-29T04:18:50.944Z,96.89
2023-01-29T04:19:50.545Z,97.04
2023-01-29T04:20:51.577Z,97.33
2023-01-29T04:21:53.429Z,97.5
2023-01-29T04:22:53.262Z,97.51
2023-01-29T04:23:51.709Z,97.44
2023-01-29T04:24:52.326Z,97.57
2023-01-29T05:02:12.381Z,97.48
2023-01-29T05:03:14.286Z,97.43
2023-01-29T05:05:18.390Z,97.62
2023-01-29T05:06:18.600Z,97.73
2023-01-29T05:07:19.527Z,97.59
2023-01-29T05:09:20.867Z,97.45
2023-01-29T05:10:23.098Z,97.45
2023-01-29T05:11:22.046Z,97.42
2023-01-29T05:13:24.900Z,97.54
2023-01-29T05:14:25.447Z,97.52
2023-01-29T05:17:30.771Z,97.96
2023-01-29T05:18:32.093Z,97.91
2023-01-29T05:19:31.888Z,97.84
2023-01-29T05:21:34.064Z,97.78
2023-01-29T05:23:38.059Z,97.77
2023-01-29T05:24:38.074Z,97.83
2023-01-29T05:25:38.803Z,97.84
2023-01-29T05:26:39.123Z,97.75
2023-01-29T05:27:39.425Z,97.7
2023-01-29T05:28:39.535Z,97.7
2023-01-29T05:31:46.219Z,97.71
2023-01-29T05:32:46.421Z,97.63
2023-01-29T05:33:47.034Z,97.52
2023-01-29T05:34:47.151Z,97.54
2023-01-29T05:35:48.384Z,97.54
2023-01-29T05:36:48.082Z,97.55
2023-01-29T05:37:48.414Z,97.62
2023-01-29T05:38:48.914Z,97.66
2023-01-29T05:39:49.237Z,97.67
2023-01-29T05:40:49.650Z,97.75
2023-01-29T05:41:50.194Z,97.82
2023-01-29T05:42:51.095Z,97.79
2023-01-29T05:43:50.895Z,97.82
2023-01-29T05:44:51.351Z,97.83
2023-01-29T05:46:52.263Z,97.81
2023-01-29T05:47:59.936Z,97.79
2023-01-29T05:48:55.583Z,97.75
2023-01-29T05:49:53.613Z,97.74
2023-01-29T05:50:54.111Z,97.75
2023-01-29T05:51:54.331Z,97.76
2023-01-29T05:52:59.056Z,97.82
2023-01-29T05:53:57.213Z,97.91
2023-01-29T05:54:57.411Z,98.01
2023-01-29T05:55:57.538Z,97.95
2023-01-29T05:56:58.258Z,98.02
2023-01-29T05:57:58.361Z,97.94
2023-01-29T05:58:58.601Z,97.86
2023-01-29T05:59:59.098Z,97.87
2023-01-29T06:00:59.098Z,97.85
2023-01-29T06:01:59.779Z,97.93
2023-01-29T06:03:00.208Z,97.94
2023-01-29T06:04:00.364Z,98.11
2023-01-29T06:05:00.773Z,98.16
2023-01-29T06:06:02.410Z,98.24
2023-01-29T06:07:01.499Z,98.19
2023-01-29T06:08:01.609Z,98.2
2023-01-29T06:09:01.914Z,98.33
2023-01-29T06:10:02.635Z,98.52
2023-01-29T06:11:02.442Z,98.52
2023-01-29T06:12:03.058Z,98.5
2023-01-29T06:13:03.984Z,98.44
2023-01-29T06:14:03.795Z,98.5
2023-01-29T06:15:04.513Z,98.56
2023-01-29T06:16:08.337Z,98.62
2023-01-29T06:17:06.571Z,98.61
2023-01-29T06:18:06.782Z,98.58
2023-01-29T06:19:06.892Z,98.5
2023-01-29T06:20:08.555Z,98.5
2023-01-29T06:21:09.693Z,98.55
2023-01-29T06:22:07.947Z,98.54
2023-01-29T06:23:08.149Z,98.54
2023-01-29T06:24:09.445Z,98.58
2023-01-29T06:25:09.701Z,98.58
2023-01-29T06:26:14.563Z,98.5
2023-01-29T06:27:12.375Z,98.53
2023-01-29T06:28:12.804Z,98.44
2023-01-29T06:29:13.224Z,98.44
2023-01-29T06:30:14.459Z,98.38
2023-01-29T06:31:33.032Z,98.39
2023-01-29T06:32:16.543Z,98.34
2023-01-29T06:33:16.708Z,98.4
2023-01-29T06:34:17.657Z,98.4
2023-01-29T06:35:17.966Z,98.53
2023-01-29T06:36:17.683Z,98.58
2023-01-29T06:37:18.068Z,98.65
2023-01-29T06:38:18.397Z,98.65
2023-01-29T06:39:18.712Z,98.7
2023-01-29T06:40:19.702Z,98.67
2023-01-29T06:41:20.364Z,98.59
2023-01-29T06:42:20.053Z,98.58
2023-01-29T06:43:20.574Z,98.62
2023-01-29T06:44:20.723Z,98.77
2023-01-29T06:45:20.674Z,98.8
2023-01-29T06:46:21.107Z,98.71
2023-01-29T06:47:21.625Z,98.63
2023-01-29T06:48:22.753Z,98.55
2023-01-29T06:49:21.880Z,98.52
2023-01-29T06:50:22.459Z,98.46
2023-01-29T06:51:22.774Z,98.38
2023-01-29T06:52:23.005Z,98.42
2023-01-29T06:53:23.399Z,98.5
2023-01-29T06:54:23.422Z,98.61
2023-01-29T06:55:24.022Z,98.59
2023-01-29T06:56:24.758Z,98.48
2023-01-29T06:57:25.674Z,98.46
2023-01-29T06:58:24.791Z,98.44
2023-01-29T06:59:25.294Z,98.29
2023-01-29T07:00:25.496Z,98.16
2023-01-29T07:01:35.693Z,98.15
2023-01-29T07:02:29.468Z,98.08
2023-01-29T07:03:29.404Z,97.97
2023-01-29T07:04:30.234Z,97.99
2023-01-29T07:05:30.754Z,98.09
2023-01-29T07:06:31.387Z,98.22
2023-01-29T07:07:31.076Z,98.1
2023-01-29T07:08:31.699Z,98.09
2023-01-29T07:09:32.010Z,98.11
2023-01-29T07:10:32.007Z,98.07
2023-01-29T07:11:32.644Z,97.96
2023-01-29T07:12:32.532Z,97.76
2023-01-29T07:13:32.644Z,97.69
2023-01-29T07:14:33.066Z,97.7
2023-01-29T07:15:34.276Z,97.59
2023-01-29T07:16:34.402Z,97.57
2023-01-29T07:17:34.204Z,97.65
2023-01-29T07:18:34.528Z,97.66
2023-01-29T07:19:34.839Z,97.93
2023-01-29T07:20:35.771Z,98.08
2023-01-29T07:21:35.274Z,98.09
2023-01-29T07:22:35.819Z,98.05
2023-01-29T07:23:36.406Z,97.91
2023-01-29T07:24:36.406Z,97.72
2023-01-29T07:25:36.740Z,97.5
2023-01-29T07:26:37.140Z,97.57
2023-01-29T07:27:37.445Z,97.64
2023-01-29T07:28:41.557Z,97.7
2023-01-29T07:29:39.605Z,97.77
2023-01-29T07:30:39.826Z,97.71
2023-01-29T07:31:40.295Z,97.69
2023-01-29T07:32:40.179Z,97.64
2023-01-29T07:33:40.870Z,97.71
2023-01-29T07:34:40.981Z,97.71
2023-01-29T07:35:42.935Z,97.7
2023-01-29T07:36:41.704Z,97.57
2023-01-29T07:37:41.966Z,97.44
2023-01-29T07:38:42.454Z,97.48
2023-01-29T07:39:42.745Z,97.57
2023-01-29T07:40:43.181Z,97.58
2023-01-29T07:41:43.206Z,97.56
2023-01-29T07:42:43.807Z,97.68
2023-01-29T07:43:44.000Z,97.73
2023-01-29T07:44:44.217Z,97.72
2023-01-29T07:45:44.638Z,97.69
2023-01-29T07:46:44.774Z,97.69
2023-01-29T07:47:45.360Z,97.59
2023-01-29T07:48:46.391Z,97.54
2023-01-29T07:49:45.781Z,97.38
2023-01-29T07:50:46.250Z,97.15
2023-01-29T07:51:46.722Z,97.18
2023-01-29T07:52:47.047Z,97.23
2023-01-29T07:53:47.174Z,97.24
2023-01-29T07:54:47.655Z,97.17
2023-01-29T07:55:47.982Z,97.06
2023-01-29T07:56:48.184Z,96.87
2023-01-29T07:57:48.706Z,96.7
2023-01-29T07:58:49.224Z,96.79
2023-01-29T07:59:49.337Z,97.01
2023-01-29T08:00:49.727Z,97.12
2023-01-29T08:01:49.864Z,97.21
2023-01-29T08:02:50.280Z,97.19
2023-01-29T08:03:51.514Z,97.16
2023-01-29T08:04:51.106Z,97.01
2023-01-29T08:05:51.114Z,96.89
2023-01-29T08:06:51.531Z,96.77
2023-01-29T08:08:06.166Z,96.91
2023-01-29T08:08:55.080Z,96.89
2023-01-29T08:09:55.442Z,96.97
2023-01-29T08:10:55.867Z,96.93
2023-01-29T08:11:56.275Z,96.81
2023-01-29T08:13:00.888Z,96.59
2023-01-29T08:13:58.756Z,96.6
2023-01-29T08:14:58.949Z,96.41
2023-01-29T08:16:03.980Z,96.15
2023-01-29T08:17:01.826Z,96.35
2023-01-29T08:18:02.977Z,96.74
2023-01-29T08:19:03.087Z,96.7
2023-01-29T08:20:02.774Z,96.62
2023-01-29T08:21:03.393Z,96.43
2023-01-29T08:22:04.435Z,96.15
2023-01-29T08:23:07.501Z,96.03
2023-01-29T08:24:05.777Z,96.05
2023-01-29T08:25:08.453Z,96.17
2023-01-29T08:26:06.709Z,96.25
2023-01-29T08:27:07.228Z,96.05
2023-01-29T08:28:07.543Z,96.17
2023-01-29T08:29:07.547Z,96.27
2023-01-29T08:30:09.806Z,96.26
2023-01-29T08:31:19.031Z,96.18
2023-01-29T08:32:12.190Z,96.01
2023-01-29T08:33:12.212Z,95.88
2023-01-29T08:34:12.613Z,95.84
2023-01-29T08:35:13.006Z,95.93
2023-01-29T08:36:13.228Z,95.94
2023-01-29T08:37:13.742Z,95.99
2023-01-29T08:38:14.164Z,95.98
2023-01-29T08:39:14.272Z,95.67
2023-01-29T08:40:15.014Z,95.74
2023-01-29T08:41:15.119Z,95.71
2023-01-29T08:42:15.308Z,95.6
2023-01-29T08:43:15.530Z,95.61
2023-01-29T08:44:15.946Z,95.58
2023-01-29T08:45:16.558Z,95.72
2023-01-29T08:46:16.895Z,95.66
2023-01-29T08:47:16.895Z,95.6
2023-01-29T08:48:17.202Z,95.65
2023-01-29T08:49:18.533Z,95.57
2023-01-29T08:50:19.439Z,95.52
2023-01-29T08:51:18.567Z,95.17
2023-01-29T08:52:18.552Z,95.24
2023-01-29T08:53:19.076Z,95.2
2023-01-29T08:54:19.390Z,95.05
2023-01-29T08:55:19.788Z,95.07
2023-01-29T08:56:19.920Z,95.03
2023-01-29T08:57:20.031Z,95.05
2023-01-29T08:58:21.154Z,94.78
2023-01-29T08:59:21.255Z,94.79
2023-01-29T09:00:22.096Z,94.83
2023-01-29T09:01:21.728Z,94.7
2023-01-29T09:02:22.198Z,94.75
2023-01-29T09:03:22.312Z,95.01
2023-01-29T09:04:23.080Z,95
2023-01-29T09:05:23.042Z,94.89
2023-01-29T09:06:23.151Z,94.82
2023-01-29T09:07:23.676Z,94.95
2023-01-29T09:08:24.096Z,94.99
2023-01-29T09:09:24.343Z,94.9
2023-01-29T09:10:24.551Z,94.72
2023-01-29T09:11:24.956Z,94.73
2023-01-29T09:12:25.546Z,94.84
2023-01-29T09:13:25.855Z,94.94
2023-01-29T09:14:25.998Z,94.93
2023-01-29T09:15:26.904Z,94.93
2023-01-29T09:16:26.752Z,94.83
2023-01-29T09:17:26.815Z,94.8
2023-01-29T09:18:27.227Z,94.85
2023-01-29T09:19:27.738Z,94.86
2023-01-29T09:20:28.052Z,94.61
2023-01-29T09:21:28.468Z,94.6
2023-01-29T09:22:28.785Z,94.6
2023-01-29T09:23:30.536Z,94.63
2023-01-29T09:24:29.320Z,94.39
2023-01-29T09:25:29.826Z,94.28
2023-01-29T09:26:30.113Z,94.24
2023-01-29T09:27:30.425Z,94.23
2023-01-29T09:28:30.715Z,94.43
2023-01-29T09:29:31.286Z,94.45
2023-01-29T09:30:31.509Z,94.64
2023-01-29T09:31:31.859Z,94.48
2023-01-29T09:33:37.061Z,94.33
2023-01-29T09:34:37.255Z,94.33
2023-01-29T09:35:37.380Z,94.47
2023-01-29T09:36:37.778Z,94.42
2023-01-29T09:37:38.140Z,94.16
2023-01-29T09:38:38.510Z,94.15
2023-01-29T09:39:38.951Z,94.17
2023-01-29T09:42:56.182Z,94.23
2023-01-29T09:43:55.550Z,94.15
2023-01-29T09:46:57.414Z,94.03
2023-01-29T09:56:23.886Z,94.61
2023-01-29T09:57:29.043Z,94.66
2023-01-29T09:59:32.513Z,94.83
2023-01-29T10:25:24.283Z,96.69
2023-01-29T10:26:27.651Z,96.88
2023-01-29T10:27:32.284Z,96.98
2023-01-29T10:28:40.379Z,96.97
2023-01-29T10:29:34.862Z,97
2023-01-29T10:30:42.262Z,97.04
2023-01-29T10:31:40.238Z,96.76
2023-01-29T10:32:38.867Z,97.07
2023-01-29T10:34:00.988Z,97.12
2023-01-29T10:34:48.924Z,96.92
2023-01-29T10:35:50.077Z,97.01
2023-01-29T10:36:46.145Z,96.98
2023-01-29T10:37:44.439Z,96.96
2023-01-29T10:38:46.799Z,96.76
2023-01-29T10:39:44.975Z,96.72
2023-01-29T11:01:35.107Z,98.5
2023-01-29T11:02:35.069Z,98.64
2023-01-29T11:03:35.763Z,98.73
2023-01-29T11:04:38.633Z,98.86
2023-01-29T11:05:44.929Z,99.08
2023-01-29T11:06:38.170Z,99.14
2023-01-29T11:07:38.110Z,99.06
2023-01-29T11:12:55.336Z,99.11
2023-01-29T11:16:05.895Z,98.97
2023-01-29T11:17:04.020Z,99.03
2023-01-29T11:18:12.751Z,99.02
2023-01-29T11:19:05.330Z,99.02
2023-01-29T11:21:08.991Z,99.09
2023-01-29T11:24:17.710Z,99.27
2023-01-29T11:25:19.249Z,99.19
2023-01-29T11:26:22.875Z,98.98
2023-01-29T11:27:27.764Z,98.97
2023-01-29T11:29:42.070Z,98.91
2023-01-29T11:30:34.321Z,98.9
2023-01-29T11:31:39.586Z,98.97
2023-01-29T11:32:35.998Z,99
2023-01-29T11:33:33.871Z,98.99
2023-01-29T11:34:34.680Z,99.16
2023-01-29T11:35:34.989Z,99.23
2023-01-29T11:36:40.009Z,99.2
2023-01-29T11:37:40.218Z,99.18
2023-01-29T11:38:38.285Z,99.16
2023-01-29T11:39:45.066Z,99.25
2023-01-29T11:40:43.803Z,99.36
2023-01-29T11:41:45.229Z,99.42
2023-01-29T11:42:43.777Z,99.56
2023-01-29T11:43:43.944Z,99.71
2023-01-29T11:44:44.368Z,99.77
2023-01-29T11:45:45.472Z,99.9
2023-01-29T11:46:46.754Z,99.91
2023-01-29T11:47:56.168Z,99.81
2023-01-29T11:48:51.906Z,99.82
2023-01-29T11:49:53.210Z,99.77
2023-01-29T11:50:57.817Z,99.62
2023-01-29T11:51:57.829Z,99.62
2023-01-29T11:52:56.666Z,99.54
2023-01-29T11:55:06.246Z,99.25
2023-01-29T11:55:59.288Z,99.31
2023-01-29T11:57:00.128Z,99.47
2023-01-29T11:59:02.075Z,99.78
2023-01-29T12:01:01.468Z,99.71
2023-01-29T12:04:19.096Z,99.75
2023-01-29T12:05:19.102Z,99.7
2023-01-29T12:06:21.675Z,99.53
2023-01-29T12:07:18.916Z,99.57
2023-01-29T12:08:19.955Z,99.48
2023-01-29T12:09:20.970Z,99.4
2023-01-29T12:13:29.006Z,99.1
2023-01-29T12:14:32.271Z,99.09
2023-01-29T12:15:25.060Z,99.08
2023-01-29T12:20:43.062Z,99.15
2023-01-29T12:24:58.965Z,99.55
2023-01-29T12:38:25.269Z,99.59
2023-01-29T12:39:17.497Z,99.78
2023-01-29T12:40:17.654Z,99.89
2023-01-29T12:42:24.841Z,100
2023-01-29T12:45:29.918Z,100
2023-01-29T12:48:35.166Z,100
2023-01-29T12:49:40.190Z,100
2023-01-29T12:50:39.165Z,100
2023-01-29T12:51:49.932Z,100
2023-01-29T12:52:48.405Z,100
2023-01-29T12:53:55.779Z,100
2023-01-29T12:59:03.702Z,100
2023-01-29T13:06:23.097Z,100
2023-01-29T13:07:28.736Z,100
2023-01-29T13:09:29.268Z,100
2023-01-29T13:10:32.863Z,100
2023-01-29T13:12:36.754Z,100
2023-01-29T13:13:48.834Z,100
2023-01-29T13:15:41.994Z,100
2023-01-29T13:16:45.153Z,100
2023-01-29T13:20:50.328Z,100
2023-01-29T13:21:49.509Z,100
2023-01-29T13:22:50.849Z,100
2023-01-29T13:25:03.581Z,100
2023-01-29T13:25:54.089Z,100
2023-01-29T13:26:52.841Z,100
2023-01-29T13:27:53.956Z,100
2023-01-29T13:28:53.974Z,100
2023-01-29T13:29:55.304Z,100
2023-01-29T13:31:57.154Z,100
2023-01-29T13:32:56.643Z,100
2023-01-29T13:36:02.314Z,100
2023-01-29T13:38:06.417Z,100
2023-01-29T13:39:08.057Z,100
2023-01-29T13:40:08.255Z,100
2023-01-29T13:41:07.961Z,100
2023-01-29T13:46:20.248Z,100
2023-01-29T13:48:33.516Z,100
2023-01-29T13:54:36.410Z,100
2023-01-29T13:55:38.833Z,100
2023-01-29T13:57:55.667Z,100
2023-01-29T14:00:50.172Z,100
2023-01-29T14:04:04.805Z,100
2023-01-29T14:06:00.888Z,100
2023-01-29T14:07:02.877Z,100
2023-01-29T14:09:01.600Z,100
2023-01-29T14:17:22.231Z,100
2023-01-29T14:18:24.524Z,100
2023-01-29T14:19:25.107Z,100
2023-01-29T14:21:30.660Z,100
2023-01-29T14:22:32.594Z,100
2023-01-29T14:24:34.768Z,100
2023-01-29T14:25:38.775Z,100
2023-01-29T14:26:44.877Z,100
2023-01-29T14:27:38.020Z,100
2023-01-29T14:28:38.175Z,100
2023-01-29T14:29:42.489Z,100
2023-01-29T14:30:41.467Z,100
2023-01-29T14:32:48.603Z,100
2023-01-29T14:33:46.500Z,100
2023-01-29T14:34:51.123Z,100
2023-01-29T14:35:53.435Z,100
2023-01-29T14:36:55.474Z,100
2023-01-29T14:37:57.397Z,100
2023-01-29T14:38:55.750Z,100
2023-01-29T14:41:58.691Z,100
2023-01-29T14:49:12.542Z,100
2023-01-29T14:51:18.363Z,100
2023-01-29T14:52:17.874Z,100
2023-01-29T14:57:24.244Z,100
2023-01-29T15:00:43.516Z,100
2023-01-29T15:01:36.931Z,100
2023-01-29T15:02:46.043Z,100
2023-01-29T15:03:48.129Z,100
2023-01-29T15:04:49.460Z,100
2023-01-29T15:05:43.030Z,100
2023-01-29T15:06:51.137Z,100
2023-01-29T15:07:52.471Z,100
2023-01-29T15:10:56.676Z,100
2023-01-29T15:21:20.297Z,100
2023-01-29T15:22:22.084Z,100
2023-01-29T15:23:26.682Z,100
2023-01-29T15:24:24.729Z,100
2023-01-29T15:25:26.163Z,100
2023-01-29T15:26:27.094Z,100
2023-01-29T15:27:25.567Z,100
2023-01-29T15:28:27.506Z,100
2023-01-29T15:29:28.462Z,100
2023-01-29T15:30:34.966Z,100
2023-01-29T15:31:28.766Z,100
2023-01-29T15:32:40.780Z,100
2023-01-29T15:33:29.388Z,100
2023-01-29T15:34:29.389Z,100
2023-01-29T15:35:34.838Z,100
2023-01-29T15:36:33.403Z,100
2023-01-29T15:37:35.016Z,100
2023-01-29T15:38:33.205Z,100
2023-01-29T15:39:43.260Z,100
2023-01-29T15:40:36.308Z,100
2023-01-29T15:41:36.812Z,100
2023-01-29T15:42:45.426Z,100
2023-01-29T15:43:44.860Z,100
2023-01-29T15:44:46.771Z,100
2023-01-29T15:45:44.522Z,100
2023-01-29T15:46:54.059Z,100
2023-01-29T15:47:47.224Z,100
2023-01-29T15:48:49.462Z,100
2023-01-29T15:49:48.036Z,100
2023-01-29T15:50:51.419Z,100
2023-01-29T15:51:49.405Z,100
2023-01-29T15:52:52.967Z,100
2023-01-29T15:54:04.034Z,100
2023-01-29T15:54:52.564Z,100
2023-01-29T15:55:52.377Z,100
2023-01-29T15:56:54.316Z,100
2023-01-29T15:57:53.615Z,100
2023-01-29T15:58:53.623Z,100
2023-01-29T15:59:58.075Z,100
2023-01-29T16:00:58.242Z,100
2023-01-29T16:01:56.557Z,100
2023-01-29T16:02:58.311Z,100
2023-01-29T16:03:59.900Z,100
2023-01-29T16:04:58.353Z,100
2023-01-29T16:05:58.581Z,100
2023-01-29T16:07:01.035Z,100
2023-01-29T16:08:01.159Z,100
2023-01-29T16:08:59.319Z,100
2023-01-29T16:10:00.506Z,100
2023-01-29T16:11:03.112Z,100
2023-01-29T16:12:01.404Z,100
2023-01-29T16:13:01.898Z,100
2023-01-29T16:14:03.549Z,100
2023-01-29T16:15:04.283Z,100
2023-01-29T16:22:26.151Z,100
2023-01-29T16:23:31.570Z,100
2023-01-29T16:24:31.083Z,100
2023-01-29T16:25:30.860Z,100
2023-01-29T16:26:34.930Z,100
2023-01-29T16:27:34.041Z,100
2023-01-29T16:28:33.547Z,100
2023-01-29T16:29:34.700Z,100
2023-01-29T16:30:34.526Z,100
2023-01-29T16:31:37.159Z,100
2023-01-29T16:32:35.929Z,100
2023-01-29T16:33:42.696Z,100
2023-01-29T16:35:38.598Z,100
2023-01-29T16:36:46.212Z,100
2023-01-29T16:37:49.568Z,100
2023-01-29T16:39:52.246Z,100
2023-01-29T16:45:04.241Z,100
2023-01-29T16:53:23.173Z,100
2023-01-29T16:54:27.059Z,100
2023-01-29T16:55:25.847Z,100
2023-01-29T16:56:29.112Z,100
2023-01-29T16:58:31.896Z,100
2023-01-29T17:00:34.409Z,100
2023-01-29T17:01:36.824Z,100
2023-01-29T17:02:39.116Z,100
2023-01-29T17:03:39.387Z,100
2023-01-29T17:04:37.464Z,100
2023-01-29T17:05:39.213Z,100
2023-01-29T17:06:39.523Z,100
2023-01-29T17:07:38.928Z,100
2023-01-29T17:08:42.025Z,100
2023-01-29T17:09:40.074Z,100
2023-01-29T17:10:47.228Z,100
2023-01-29T17:11:45.090Z,100
2023-01-29T17:12:53.598Z,100
2023-01-29T17:13:46.657Z,100
2023-01-29T17:15:47.613Z,100
2023-01-29T17:17:50.668Z,100
2023-01-29T17:18:51.172Z,100
2023-01-29T17:19:51.600Z,100
2023-01-29T17:20:52.534Z,100
2023-01-29T17:21:52.737Z,100
2023-01-29T17:22:53.351Z,100
2023-01-29T17:23:54.304Z,100
2023-01-29T17:24:53.986Z,100
2023-01-29T17:25:54.507Z,100
2023-01-29T17:26:55.024Z,100
2023-01-29T17:27:54.932Z,100
2023-01-29T17:28:55.376Z,100
2023-01-29T17:29:55.850Z,100
2023-01-29T17:31:05.925Z,100
2023-01-29T17:32:00.008Z,100
2023-01-29T17:33:00.181Z,100
2023-01-29T17:34:00.288Z,100
2023-01-29T17:35:00.743Z,100
2023-01-29T17:36:00.961Z,100
2023-01-29T17:37:01.642Z,100
2023-01-29T17:38:01.656Z,100
2023-01-29T17:39:02.070Z,100
2023-01-29T17:40:05.181Z,100
2023-01-29T17:41:08.732Z,100
2023-01-29T17:42:06.697Z,100
2023-01-29T17:43:06.696Z,100
2023-01-29T17:44:07.252Z,100
2023-01-29T17:45:08.443Z,100
2023-01-29T17:46:13.918Z,100
2023-01-29T17:47:14.514Z,100
2023-01-29T17:48:19.738Z,100
2023-01-29T17:51:18.542Z,100
2023-01-29T17:52:17.812Z,100
2023-01-29T17:53:18.025Z,100
2023-01-29T17:54:22.240Z,100
2023-01-29T17:55:22.568Z,100
2023-01-29T17:57:23.903Z,100
2023-01-29T17:58:26.551Z,100
2023-01-29T17:59:27.686Z,100
2023-01-29T18:00:25.640Z,100
2023-01-29T18:01:26.197Z,100
2023-01-29T18:02:29.226Z,100
2023-01-29T18:03:28.029Z,100
2023-01-29T18:04:28.037Z,100
2023-01-29T18:05:28.552Z,100
2023-01-29T18:06:30.608Z,100
2023-01-29T18:07:28.966Z,100
2023-01-29T18:08:32.771Z,100
2023-01-29T18:09:30.626Z,100
2023-01-29T18:10:31.240Z,100
2023-01-29T18:11:31.255Z,100
2023-01-29T18:12:31.785Z,100
2023-01-29T18:13:31.984Z,100
2023-01-29T18:14:32.499Z,100
2023-01-29T18:15:32.724Z,100
2023-01-29T18:16:33.360Z,100
2023-01-29T18:17:33.442Z,100
2023-01-29T18:18:33.729Z,100
2023-01-29T18:19:34.076Z,100
2023-01-29T18:20:35.197Z,100
2023-01-29T18:21:34.697Z,100
2023-01-29T18:22:35.220Z,100
2023-01-29T18:23:35.336Z,100
2023-01-29T18:24:35.952Z,100
2023-01-29T18:25:36.279Z,100
2023-01-29T18:26:36.579Z,100
2023-01-29T18:27:36.729Z,100
2023-01-29T18:28:37.074Z,100
2023-01-29T18:29:37.611Z,100
2023-01-29T18:30:37.802Z,100
2023-01-29T18:31:38.411Z,100
2023-01-29T18:32:38.353Z,100
2023-01-29T18:33:38.761Z,100
2023-01-29T18:34:39.535Z,100
2023-01-29T18:35:39.545Z,100
2023-01-29T18:36:39.812Z,100
2023-01-29T18:37:40.332Z,100
2023-01-29T18:38:40.464Z,100
2023-01-29T18:39:42.414Z,100
2023-01-29T18:40:41.174Z,100
2023-01-29T18:41:41.474Z,100
2023-01-29T18:42:42.028Z,100
2023-01-29T18:43:42.765Z,100
2023-01-29T18:44:42.624Z,100
2023-01-29T18:45:43.468Z,100
2023-01-29T18:46:43.464Z,100
2023-01-29T18:47:43.777Z,100